sensor_id;sensor_type;location;lat;lon;timestamp;temperature;humidity
48912;DHT22;34722;52.108;5.044;2022-11-18T00:00:47;8.30;99.90
48912;DHT22;34722;52.108;5.044;2022-11-18T00:03:13;8.30;99.90
48912;DHT22;34722;52.108;5.044;2022-11-18T00:05:39;8.20;99.90
48912;DHT22;34722;52.108;5.044;2022-11-18T00:08:05;8.20;99.90
48912;DHT22;34722;52.108;5.044;2022-11-18T00:10:30;8.20;99.90
48912;DHT22;34722;52.108;5.044;2022-11-18T00:12:56;8.20;99.90
48912;DHT22;34722;52.108;5.044;2022-11-18T00:15:40;8.20;99.90
48912;DHT22;34722;52.108;5.044;2022-11-18T00:18:06;8.20;99.90
48912;DHT22;34722;52.108;5.044;2022-11-18T00:20:33;8.20;99.90
48912;DHT22;34722;52.108;5.044;2022-11-18T00:22:59;8.20;99.90
48912;DHT22;34722;52.108;5.044;2022-11-18T00:25:25;8.20;99.90
48912;DHT22;34722;52.108;5.044;2022-11-18T00:27:52;8.20;99.90
48912;DHT22;34722;52.108;5.044;2022-11-18T00:30:18;8.20;99.90
48912;DHT22;34722;52.108;5.044;2022-11-18T00:32:43;8.20;99.90
48912;DHT22;34722;52.108;5.044;2022-11-18T00:35:09;8.20;99.90
48912;DHT22;34722;52.108;5.044;2022-11-18T00:37:35;8.10;99.90
48912;DHT22;34722;52.108;5.044;2022-11-18T00:40:01;8.10;99.90
48912;DHT22;34722;52.108;5.044;2022-11-18T00:42:26;8.20;99.90
48912;DHT22;34722;52.108;5.044;2022-11-18T00:45:10;8.20;99.90
48912;DHT22;34722;52.108;5.044;2022-11-18T00:47:36;8.20;99.90
48912;DHT22;34722;52.108;5.044;2022-11-18T00:50:02;8.20;99.90
48912;DHT22;34722;52.108;5.044;2022-11-18T00:52:28;8.20;99.90
48912;DHT22;34722;52.108;5.044;2022-11-18T00:54:53;8.20;99.90
48912;DHT22;34722;52.108;5.044;2022-11-18T00:57:19;8.10;99.90
48912;DHT22;34722;52.108;5.044;2022-11-18T00:59:44;8.10;99.90
48912;DHT22;34722;52.108;5.044;2022-11-18T01:02:10;8.00;99.90
48912;DHT22;34722;52.108;5.044;2022-11-18T01:04:35;8.00;99.90
48912;DHT22;34722;52.108;5.044;2022-11-18T01:07:01;8.00;99.90
48912;DHT22;34722;52.108;5.044;2022-11-18T01:09:27;8.00;99.90
48912;DHT22;34722;52.108;5.044;2022-11-18T01:11:53;7.90;99.90
48912;DHT22;34722;52.108;5.044;2022-11-18T01:14:37;8.00;99.90
48912;DHT22;34722;52.108;5.044;2022-11-18T01:17:02;7.90;99.90
48912;DHT22;34722;52.108;5.044;2022-11-18T01:19:28;8.00;99.90
48912;DHT22;34722;52.108;5.044;2022-11-18T01:21:54;8.00;99.90
48912;DHT22;34722;52.108;5.044;2022-11-18T01:24:21;8.00;99.90
48912;DHT22;34722;52.108;5.044;2022-11-18T01:26:46;8.00;99.90
48912;DHT22;34722;52.108;5.044;2022-11-18T01:29:12;8.00;99.90
48912;DHT22;34722;52.108;5.044;2022-11-18T01:57:26;8.00;99.90
48912;DHT22;34722;52.108;5.044;2022-11-18T01:59:56;8.10;99.90
48912;DHT22;34722;52.108;5.044;2022-11-18T02:02:23;8.00;99.90
48912;DHT22;34722;52.108;5.044;2022-11-18T02:04:51;8.10;99.90
48912;DHT22;34722;52.108;5.044;2022-11-18T02:07:19;8.10;99.90
48912;DHT22;34722;52.108;5.044;2022-11-18T02:09:46;8.10;99.90
48912;DHT22;34722;52.108;5.044;2022-11-18T02:12:12;8.10;99.90
48912;DHT22;34722;52.108;5.044;2022-11-18T02:14:42;8.10;99.90
48912;DHT22;34722;52.108;5.044;2022-11-18T02:31:07;8.00;99.90
48912;DHT22;34722;52.108;5.044;2022-11-18T02:33:45;8.00;99.90
48912;DHT22;34722;52.108;5.044;2022-11-18T02:39:15;8.00;99.90
48912;DHT22;34722;52.108;5.044;2022-11-18T02:41:43;8.00;99.90
48912;DHT22;34722;52.108;5.044;2022-11-18T02:44:13;8.00;99.90
48912;DHT22;34722;52.108;5.044;2022-11-18T02:46:43;8.00;99.90
48912;DHT22;34722;52.108;5.044;2022-11-18T02:49:15;7.90;99.90
48912;DHT22;34722;52.108;5.044;2022-11-18T02:51:44;8.00;99.90
48912;DHT22;34722;52.108;5.044;2022-11-18T02:54:11;7.90;99.90
48912;DHT22;34722;52.108;5.044;2022-11-18T02:56:40;7.90;99.90
48912;DHT22;34722;52.108;5.044;2022-11-18T02:59:06;7.90;99.90
48912;DHT22;34722;52.108;5.044;2022-11-18T03:01:34;7.90;99.90
48912;DHT22;34722;52.108;5.044;2022-11-18T03:04:00;8.00;99.90
48912;DHT22;34722;52.108;5.044;2022-11-18T03:06:39;7.90;99.90
48912;DHT22;34722;52.108;5.044;2022-11-18T03:12:05;7.90;99.90
48912;DHT22;34722;52.108;5.044;2022-11-18T03:17:31;7.80;99.90
48912;DHT22;34722;52.108;5.044;2022-11-18T03:20:08;7.90;99.90
48912;DHT22;34722;52.108;5.044;2022-11-18T03:22:43;7.90;99.90
48912;DHT22;34722;52.108;5.044;2022-11-18T03:25:20;7.90;99.90
48912;DHT22;34722;52.108;5.044;2022-11-18T03:28:08;7.90;99.90
48912;DHT22;34722;52.108;5.044;2022-11-18T03:30:37;7.80;99.90
48912;DHT22;34722;52.108;5.044;2022-11-18T03:33:23;7.80;99.90
48912;DHT22;34722;52.108;5.044;2022-11-18T03:35:51;7.90;99.90
48912;DHT22;34722;52.108;5.044;2022-11-18T03:38:23;7.80;99.90
48912;DHT22;34722;52.108;5.044;2022-11-18T03:41:03;7.80;99.90
48912;DHT22;34722;52.108;5.044;2022-11-18T03:43:35;7.80;99.90
48912;DHT22;34722;52.108;5.044;2022-11-18T03:46:11;7.70;99.90
48912;DHT22;34722;52.108;5.044;2022-11-18T03:48:58;7.70;99.90
48912;DHT22;34722;52.108;5.044;2022-11-18T03:51:41;7.80;99.90
48912;DHT22;34722;52.108;5.044;2022-11-18T03:54:24;7.70;99.90
48912;DHT22;34722;52.108;5.044;2022-11-18T03:56:59;7.70;99.90
48912;DHT22;34722;52.108;5.044;2022-11-18T03:59:37;7.70;99.90
48912;DHT22;34722;52.108;5.044;2022-11-18T04:02:14;7.70;99.90
48912;DHT22;34722;52.108;5.044;2022-11-18T04:04:41;7.70;99.90
48912;DHT22;34722;52.108;5.044;2022-11-18T04:10:23;7.70;99.90
48912;DHT22;34722;52.108;5.044;2022-11-18T04:13:02;7.60;99.90
48912;DHT22;34722;52.108;5.044;2022-11-18T04:15:30;7.60;99.90
48912;DHT22;34722;52.108;5.044;2022-11-18T04:17:57;7.70;99.90
48912;DHT22;34722;52.108;5.044;2022-11-18T04:20:23;7.70;99.90
48912;DHT22;34722;52.108;5.044;2022-11-18T04:22:49;7.70;99.90
48912;DHT22;34722;52.108;5.044;2022-11-18T04:25:15;7.70;99.90
48912;DHT22;34722;52.108;5.044;2022-11-18T04:27:41;7.60;99.90
48912;DHT22;34722;52.108;5.044;2022-11-18T04:30:07;7.70;99.90
48912;DHT22;34722;52.108;5.044;2022-11-18T04:32:33;7.60;99.90
48912;DHT22;34722;52.108;5.044;2022-11-18T04:35:01;7.60;99.90
48912;DHT22;34722;52.108;5.044;2022-11-18T04:37:27;7.70;99.90
48912;DHT22;34722;52.108;5.044;2022-11-18T04:39:53;7.60;99.90
48912;DHT22;34722;52.108;5.044;2022-11-18T04:42:18;7.70;99.90
48912;DHT22;34722;52.108;5.044;2022-11-18T04:44:44;7.70;99.90
48912;DHT22;34722;52.108;5.044;2022-11-18T04:47:10;7.70;99.90
48912;DHT22;34722;52.108;5.044;2022-11-18T04:49:35;7.80;99.90
48912;DHT22;34722;52.108;5.044;2022-11-18T04:52:01;7.70;99.90
48912;DHT22;34722;52.108;5.044;2022-11-18T04:54:28;7.80;99.90
48912;DHT22;34722;52.108;5.044;2022-11-18T04:56:54;7.80;99.90
48912;DHT22;34722;52.108;5.044;2022-11-18T04:59:22;7.80;99.90
48912;DHT22;34722;52.108;5.044;2022-11-18T05:01:49;7.80;99.90
48912;DHT22;34722;52.108;5.044;2022-11-18T05:04:21;7.80;99.90
48912;DHT22;34722;52.108;5.044;2022-11-18T05:06:47;7.80;99.90
48912;DHT22;34722;52.108;5.044;2022-11-18T05:09:14;7.80;99.90
48912;DHT22;34722;52.108;5.044;2022-11-18T05:11:40;7.80;99.90
48912;DHT22;34722;52.108;5.044;2022-11-18T05:14:25;7.80;99.90
48912;DHT22;34722;52.108;5.044;2022-11-18T05:16:52;7.80;99.90
48912;DHT22;34722;52.108;5.044;2022-11-18T05:19:18;7.80;99.90
48912;DHT22;34722;52.108;5.044;2022-11-18T05:21:44;7.80;99.90
48912;DHT22;34722;52.108;5.044;2022-11-18T05:24:09;7.80;99.90
48912;DHT22;34722;52.108;5.044;2022-11-18T05:26:35;7.80;99.90
48912;DHT22;34722;52.108;5.044;2022-11-18T05:29:02;7.80;99.90
48912;DHT22;34722;52.108;5.044;2022-11-18T05:31:28;7.80;99.90
48912;DHT22;34722;52.108;5.044;2022-11-18T05:33:54;7.90;99.90
48912;DHT22;34722;52.108;5.044;2022-11-18T05:36:20;7.90;99.90
48912;DHT22;34722;52.108;5.044;2022-11-18T05:38:46;7.90;99.90
48912;DHT22;34722;52.108;5.044;2022-11-18T05:41:12;8.00;99.90
48912;DHT22;34722;52.108;5.044;2022-11-18T05:43:56;8.00;99.90
48912;DHT22;34722;52.108;5.044;2022-11-18T05:46:22;8.00;99.90
48912;DHT22;34722;52.108;5.044;2022-11-18T05:48:48;8.00;99.90
48912;DHT22;34722;52.108;5.044;2022-11-18T05:51:14;8.10;99.90
48912;DHT22;34722;52.108;5.044;2022-11-18T05:53:40;8.10;99.90
48912;DHT22;34722;52.108;5.044;2022-11-18T05:58:46;8.10;99.90
48912;DHT22;34722;52.108;5.044;2022-11-18T06:01:14;8.10;99.90
48912;DHT22;34722;52.108;5.044;2022-11-18T06:03:42;8.20;99.90
48912;DHT22;34722;52.108;5.044;2022-11-18T06:06:09;8.20;99.90
48912;DHT22;34722;52.108;5.044;2022-11-18T06:08:45;8.20;99.90
48912;DHT22;34722;52.108;5.044;2022-11-18T06:11:14;8.20;99.90
48912;DHT22;34722;52.108;5.044;2022-11-18T06:13:49;8.20;99.90
48912;DHT22;34722;52.108;5.044;2022-11-18T06:16:21;8.20;99.90
48912;DHT22;34722;52.108;5.044;2022-11-18T06:18:48;8.30;99.90
48912;DHT22;34722;52.108;5.044;2022-11-18T06:21:14;8.20;99.90
48912;DHT22;34722;52.108;5.044;2022-11-18T06:23:40;8.20;99.90
48912;DHT22;34722;52.108;5.044;2022-11-18T06:26:07;8.30;99.90
48912;DHT22;34722;52.108;5.044;2022-11-18T06:28:35;8.20;99.90
48912;DHT22;34722;52.108;5.044;2022-11-18T06:31:00;8.20;99.90
48912;DHT22;34722;52.108;5.044;2022-11-18T06:33:26;8.10;99.90
48912;DHT22;34722;52.108;5.044;2022-11-18T06:35:52;8.10;99.90
48912;DHT22;34722;52.108;5.044;2022-11-18T06:38:19;8.10;99.90
48912;DHT22;34722;52.108;5.044;2022-11-18T06:40:48;8.10;99.90
48912;DHT22;34722;52.108;5.044;2022-11-18T06:43:13;8.10;99.90
48912;DHT22;34722;52.108;5.044;2022-11-18T06:46:02;8.10;99.90
48912;DHT22;34722;52.108;5.044;2022-11-18T06:48:47;8.00;99.90
48912;DHT22;34722;52.108;5.044;2022-11-18T06:51:13;8.10;99.90
48912;DHT22;34722;52.108;5.044;2022-11-18T06:53:39;8.00;99.90
48912;DHT22;34722;52.108;5.044;2022-11-18T06:56:06;8.00;99.90
48912;DHT22;34722;52.108;5.044;2022-11-18T06:58:33;8.10;99.90
48912;DHT22;34722;52.108;5.044;2022-11-18T07:01:27;8.10;99.90
48912;DHT22;34722;52.108;5.044;2022-11-18T07:03:53;8.10;99.90
48912;DHT22;34722;52.108;5.044;2022-11-18T07:06:29;8.10;99.90
48912;DHT22;34722;52.108;5.044;2022-11-18T07:09:03;8.10;99.90
48912;DHT22;34722;52.108;5.044;2022-11-18T07:11:32;8.10;99.90
48912;DHT22;34722;52.108;5.044;2022-11-18T07:14:07;8.20;99.90
48912;DHT22;34722;52.108;5.044;2022-11-18T07:16:34;8.20;99.90
48912;DHT22;34722;52.108;5.044;2022-11-18T07:19:00;8.20;99.90
48912;DHT22;34722;52.108;5.044;2022-11-18T07:21:28;8.20;99.90
48912;DHT22;34722;52.108;5.044;2022-11-18T07:23:54;8.20;99.90
48912;DHT22;34722;52.108;5.044;2022-11-18T07:26:21;8.20;99.90
48912;DHT22;34722;52.108;5.044;2022-11-18T07:28:47;8.30;99.90
48912;DHT22;34722;52.108;5.044;2022-11-18T07:31:18;8.30;99.90
48912;DHT22;34722;52.108;5.044;2022-11-18T07:33:48;8.30;99.90
48912;DHT22;34722;52.108;5.044;2022-11-18T07:37:02;8.30;99.90
48912;DHT22;34722;52.108;5.044;2022-11-18T07:39:50;8.30;99.90
48912;DHT22;34722;52.108;5.044;2022-11-18T07:42:24;8.30;99.90
48912;DHT22;34722;52.108;5.044;2022-11-18T07:44:50;8.30;99.90
48912;DHT22;34722;52.108;5.044;2022-11-18T07:47:16;8.30;99.90
48912;DHT22;34722;52.108;5.044;2022-11-18T07:49:41;8.30;99.90
48912;DHT22;34722;52.108;5.044;2022-11-18T07:52:07;8.30;99.90
48912;DHT22;34722;52.108;5.044;2022-11-18T07:54:33;8.30;99.90
48912;DHT22;34722;52.108;5.044;2022-11-18T07:56:59;8.30;99.90
48912;DHT22;34722;52.108;5.044;2022-11-18T07:59:26;8.40;99.90
48912;DHT22;34722;52.108;5.044;2022-11-18T08:01:52;8.50;99.90
48912;DHT22;34722;52.108;5.044;2022-11-18T08:17:18;10.80;99.90
48912;DHT22;34722;52.108;5.044;2022-11-18T08:19:52;11.00;99.90
48912;DHT22;34722;52.108;5.044;2022-11-18T08:22:19;11.00;99.90
48912;DHT22;34722;52.108;5.044;2022-11-18T08:24:55;10.90;99.90
48912;DHT22;34722;52.108;5.044;2022-11-18T08:27:59;10.80;99.90
48912;DHT22;34722;52.108;5.044;2022-11-18T08:30:46;10.70;99.90
48912;DHT22;34722;52.108;5.044;2022-11-18T08:33:20;10.40;99.90
48912;DHT22;34722;52.108;5.044;2022-11-18T08:35:55;10.40;99.90
48912;DHT22;34722;52.108;5.044;2022-11-18T08:38:31;10.60;99.90
48912;DHT22;34722;52.108;5.044;2022-11-18T08:41:06;10.50;99.90
48912;DHT22;34722;52.108;5.044;2022-11-18T08:43:34;10.50;99.90
48912;DHT22;34722;52.108;5.044;2022-11-18T08:46:12;10.90;99.90
48912;DHT22;34722;52.108;5.044;2022-11-18T08:48:48;11.60;99.90
48912;DHT22;34722;52.108;5.044;2022-11-18T08:51:20;11.70;91.80
48912;DHT22;34722;52.108;5.044;2022-11-18T08:53:56;11.70;98.80
48912;DHT22;34722;52.108;5.044;2022-11-18T08:56:31;12.20;57.10
48912;DHT22;34722;52.108;5.044;2022-11-18T08:58:57;12.10;41.70
48912;DHT22;34722;52.108;5.044;2022-11-18T09:01:22;11.70;58.10
48912;DHT22;34722;52.108;5.044;2022-11-18T09:03:50;11.60;58.10
48912;DHT22;34722;52.108;5.044;2022-11-18T09:06:19;11.30;67.90
48912;DHT22;34722;52.108;5.044;2022-11-18T09:08:45;11.00;87.60
48912;DHT22;34722;52.108;5.044;2022-11-18T09:11:16;10.70;96.60
48912;DHT22;34722;52.108;5.044;2022-11-18T09:13:42;10.40;99.90
48912;DHT22;34722;52.108;5.044;2022-11-18T09:16:08;10.30;99.90
48912;DHT22;34722;52.108;5.044;2022-11-18T09:18:35;10.20;99.90
48912;DHT22;34722;52.108;5.044;2022-11-18T09:21:06;10.30;99.90
48912;DHT22;34722;52.108;5.044;2022-11-18T09:23:34;10.30;99.90
48912;DHT22;34722;52.108;5.044;2022-11-18T09:26:11;10.30;99.90
48912;DHT22;34722;52.108;5.044;2022-11-18T09:28:46;10.20;99.90
48912;DHT22;34722;52.108;5.044;2022-11-18T09:31:15;9.90;99.90
48912;DHT22;34722;52.108;5.044;2022-11-18T09:33:44;9.90;99.90
48912;DHT22;34722;52.108;5.044;2022-11-18T09:36:15;9.90;99.90
48912;DHT22;34722;52.108;5.044;2022-11-18T09:38:40;9.90;99.90
48912;DHT22;34722;52.108;5.044;2022-11-18T09:44:25;9.90;99.90
48912;DHT22;34722;52.108;5.044;2022-11-18T09:46:56;9.80;99.90
48912;DHT22;34722;52.108;5.044;2022-11-18T09:49:35;9.80;99.90
48912;DHT22;34722;52.108;5.044;2022-11-18T09:52:12;9.80;99.90
48912;DHT22;34722;52.108;5.044;2022-11-18T09:54:48;9.90;99.90
48912;DHT22;34722;52.108;5.044;2022-11-18T09:57:15;9.90;99.90
48912;DHT22;34722;52.108;5.044;2022-11-18T09:59:42;9.90;99.90
48912;DHT22;34722;52.108;5.044;2022-11-18T10:04:53;10.00;99.90
48912;DHT22;34722;52.108;5.044;2022-11-18T10:07:55;10.10;99.90
48912;DHT22;34722;52.108;5.044;2022-11-18T10:10:24;10.10;99.90
48912;DHT22;34722;52.108;5.044;2022-11-18T10:13:02;10.30;99.90
48912;DHT22;34722;52.108;5.044;2022-11-18T10:15:38;10.50;99.90
48912;DHT22;34722;52.108;5.044;2022-11-18T10:26:05;10.70;99.90
48912;DHT22;34722;52.108;5.044;2022-11-18T10:28:30;10.80;99.90
48912;DHT22;34722;52.108;5.044;2022-11-18T10:31:06;10.80;99.90
48912;DHT22;34722;52.108;5.044;2022-11-18T10:33:32;10.70;99.90
48912;DHT22;34722;52.108;5.044;2022-11-18T10:36:10;10.80;99.90
48912;DHT22;34722;52.108;5.044;2022-11-18T10:38:36;10.80;99.90
48912;DHT22;34722;52.108;5.044;2022-11-18T10:41:06;10.90;99.90
48912;DHT22;34722;52.108;5.044;2022-11-18T10:43:47;10.90;99.90
48912;DHT22;34722;52.108;5.044;2022-11-18T10:49:23;10.60;99.90
48912;DHT22;34722;52.108;5.044;2022-11-18T10:52:16;10.40;99.90
48912;DHT22;34722;52.108;5.044;2022-11-18T10:55:08;10.20;99.90
48912;DHT22;34722;52.108;5.044;2022-11-18T10:57:40;10.10;99.90
48912;DHT22;34722;52.108;5.044;2022-11-18T11:03:18;9.90;99.90
48912;DHT22;34722;52.108;5.044;2022-11-18T11:05:45;9.90;99.90
48912;DHT22;34722;52.108;5.044;2022-11-18T11:08:22;9.70;99.90
48912;DHT22;34722;52.108;5.044;2022-11-18T11:10:57;9.70;99.90
48912;DHT22;34722;52.108;5.044;2022-11-18T11:13:27;9.70;99.90
48912;DHT22;34722;52.108;5.044;2022-11-18T11:15:58;9.60;99.90
48912;DHT22;34722;52.108;5.044;2022-11-18T11:18:29;9.60;99.90
48912;DHT22;34722;52.108;5.044;2022-11-18T11:21:19;9.50;99.90
48912;DHT22;34722;52.108;5.044;2022-11-18T11:23:50;9.50;99.90
48912;DHT22;34722;52.108;5.044;2022-11-18T11:32:14;9.60;99.90
48912;DHT22;34722;52.108;5.044;2022-11-18T11:37:50;9.70;99.90
48912;DHT22;34722;52.108;5.044;2022-11-18T11:46:07;9.80;99.90
48912;DHT22;34722;52.108;5.044;2022-11-18T11:52:01;10.00;99.90
48912;DHT22;34722;52.108;5.044;2022-11-18T12:00:18;10.20;99.90
48912;DHT22;34722;52.108;5.044;2022-11-18T12:05:35;10.40;99.90
48912;DHT22;34722;52.108;5.044;2022-11-18T12:08:20;10.50;99.90
48912;DHT22;34722;52.108;5.044;2022-11-18T12:10:59;10.50;99.90
48912;DHT22;34722;52.108;5.044;2022-11-18T12:30:02;10.50;99.90
48912;DHT22;34722;52.108;5.044;2022-11-18T12:40:03;10.40;99.90
48912;DHT22;34722;52.108;5.044;2022-11-18T12:42:38;10.40;99.90
48912;DHT22;34722;52.108;5.044;2022-11-18T12:50:50;10.40;99.90
48912;DHT22;34722;52.108;5.044;2022-11-18T12:53:48;10.50;99.90
48912;DHT22;34722;52.108;5.044;2022-11-18T12:58:57;10.60;99.90
48912;DHT22;34722;52.108;5.044;2022-11-18T13:01:30;10.60;99.90
48912;DHT22;34722;52.108;5.044;2022-11-18T13:06:33;10.60;99.90
48912;DHT22;34722;52.108;5.044;2022-11-18T13:09:02;10.50;99.90
48912;DHT22;34722;52.108;5.044;2022-11-18T13:11:31;10.40;99.90
48912;DHT22;34722;52.108;5.044;2022-11-18T13:14:48;10.40;99.90
48912;DHT22;34722;52.108;5.044;2022-11-18T13:17:40;10.40;99.90
48912;DHT22;34722;52.108;5.044;2022-11-18T13:25:51;10.50;99.90
48912;DHT22;34722;52.108;5.044;2022-11-18T13:28:24;10.50;99.90
48912;DHT22;34722;52.108;5.044;2022-11-18T13:33:44;10.50;99.90
48912;DHT22;34722;52.108;5.044;2022-11-18T13:36:24;10.50;99.90
48912;DHT22;34722;52.108;5.044;2022-11-18T13:38:55;10.40;99.90
48912;DHT22;34722;52.108;5.044;2022-11-18T13:41:21;10.40;99.90
48912;DHT22;34722;52.108;5.044;2022-11-18T13:43:49;10.40;99.90
48912;DHT22;34722;52.108;5.044;2022-11-18T13:46:18;10.40;99.90
48912;DHT22;34722;52.108;5.044;2022-11-18T13:48:55;10.40;99.90
48912;DHT22;34722;52.108;5.044;2022-11-18T13:51:22;10.40;99.90
48912;DHT22;34722;52.108;5.044;2022-11-18T13:53:49;10.40;99.90
48912;DHT22;34722;52.108;5.044;2022-11-18T13:56:19;10.30;99.90
48912;DHT22;34722;52.108;5.044;2022-11-18T13:58:55;10.30;99.90
48912;DHT22;34722;52.108;5.044;2022-11-18T14:01:32;10.20;99.90
48912;DHT22;34722;52.108;5.044;2022-11-18T14:09:24;10.20;99.90
48912;DHT22;34722;52.108;5.044;2022-11-18T14:12:21;10.10;99.90
48912;DHT22;34722;52.108;5.044;2022-11-18T14:14:47;10.10;99.90
48912;DHT22;34722;52.108;5.044;2022-11-18T14:17:24;10.00;99.90
48912;DHT22;34722;52.108;5.044;2022-11-18T14:19:58;10.00;99.90
48912;DHT22;34722;52.108;5.044;2022-11-18T14:22:29;9.90;99.90
48912;DHT22;34722;52.108;5.044;2022-11-18T14:25:15;9.80;99.90
48912;DHT22;34722;52.108;5.044;2022-11-18T14:28:11;9.70;99.90
48912;DHT22;34722;52.108;5.044;2022-11-18T14:30:39;9.70;99.90
48912;DHT22;34722;52.108;5.044;2022-11-18T14:33:16;9.60;99.90
48912;DHT22;34722;52.108;5.044;2022-11-18T14:36:00;9.60;99.90
48912;DHT22;34722;52.108;5.044;2022-11-18T14:38:31;9.70;99.90
48912;DHT22;34722;52.108;5.044;2022-11-18T14:41:02;9.60;99.90
48912;DHT22;34722;52.108;5.044;2022-11-18T14:43:28;9.60;99.90
48912;DHT22;34722;52.108;5.044;2022-11-18T14:46:10;9.60;99.90
48912;DHT22;34722;52.108;5.044;2022-11-18T14:48:36;9.70;99.90
48912;DHT22;34722;52.108;5.044;2022-11-18T14:51:03;9.70;99.90
48912;DHT22;34722;52.108;5.044;2022-11-18T14:53:29;9.70;99.90
48912;DHT22;34722;52.108;5.044;2022-11-18T14:55:57;9.70;99.90
48912;DHT22;34722;52.108;5.044;2022-11-18T14:58:24;9.60;99.90
48912;DHT22;34722;52.108;5.044;2022-11-18T15:00:50;9.70;99.90
48912;DHT22;34722;52.108;5.044;2022-11-18T15:03:16;9.70;99.90
48912;DHT22;34722;52.108;5.044;2022-11-18T15:05:41;9.70;99.90
48912;DHT22;34722;52.108;5.044;2022-11-18T15:08:07;9.70;99.90
48912;DHT22;34722;52.108;5.044;2022-11-18T15:10:33;9.70;99.90
48912;DHT22;34722;52.108;5.044;2022-11-18T15:13:00;9.70;99.90
48912;DHT22;34722;52.108;5.044;2022-11-18T15:15:26;9.80;99.90
48912;DHT22;34722;52.108;5.044;2022-11-18T15:17:52;9.70;99.90
48912;DHT22;34722;52.108;5.044;2022-11-18T15:20:19;9.70;99.90
48912;DHT22;34722;52.108;5.044;2022-11-18T15:22:45;9.70;99.90
48912;DHT22;34722;52.108;5.044;2022-11-18T15:25:11;9.70;99.90
48912;DHT22;34722;52.108;5.044;2022-11-18T15:27:37;9.70;99.90
48912;DHT22;34722;52.108;5.044;2022-11-18T15:30:04;9.70;99.90
48912;DHT22;34722;52.108;5.044;2022-11-18T15:32:30;9.70;99.90
48912;DHT22;34722;52.108;5.044;2022-11-18T15:34:56;9.70;99.90
48912;DHT22;34722;52.108;5.044;2022-11-18T15:37:22;9.70;99.90
48912;DHT22;34722;52.108;5.044;2022-11-18T15:39:47;9.70;99.90
48912;DHT22;34722;52.108;5.044;2022-11-18T15:42:19;9.60;99.90
48912;DHT22;34722;52.108;5.044;2022-11-18T15:44:45;9.60;99.90
48912;DHT22;34722;52.108;5.044;2022-11-18T15:47:10;9.70;99.90
48912;DHT22;34722;52.108;5.044;2022-11-18T15:49:36;9.60;99.90
48912;DHT22;34722;52.108;5.044;2022-11-18T15:52:08;9.60;99.90
48912;DHT22;34722;52.108;5.044;2022-11-18T15:54:34;9.60;99.90
48912;DHT22;34722;52.108;5.044;2022-11-18T15:57:00;9.60;99.90
48912;DHT22;34722;52.108;5.044;2022-11-18T15:59:25;9.60;99.90
48912;DHT22;34722;52.108;5.044;2022-11-18T16:01:54;9.60;99.90
48912;DHT22;34722;52.108;5.044;2022-11-18T16:04:20;9.60;99.90
48912;DHT22;34722;52.108;5.044;2022-11-18T16:06:46;9.60;99.90
48912;DHT22;34722;52.108;5.044;2022-11-18T16:09:13;9.60;99.90
48912;DHT22;34722;52.108;5.044;2022-11-18T16:11:42;9.50;99.90
48912;DHT22;34722;52.108;5.044;2022-11-18T16:14:26;9.60;99.90
48912;DHT22;34722;52.108;5.044;2022-11-18T16:16:54;9.60;99.90
48912;DHT22;34722;52.108;5.044;2022-11-18T16:19:22;9.60;99.90
48912;DHT22;34722;52.108;5.044;2022-11-18T16:21:52;9.60;99.90
48912;DHT22;34722;52.108;5.044;2022-11-18T16:24:21;9.60;99.90
48912;DHT22;34722;52.108;5.044;2022-11-18T16:26:48;9.60;99.90
48912;DHT22;34722;52.108;5.044;2022-11-18T16:29:15;9.60;99.90
48912;DHT22;34722;52.108;5.044;2022-11-18T16:31:45;9.60;99.90
48912;DHT22;34722;52.108;5.044;2022-11-18T16:34:17;9.60;99.90
48912;DHT22;34722;52.108;5.044;2022-11-18T16:36:46;9.60;99.90
48912;DHT22;34722;52.108;5.044;2022-11-18T16:39:14;9.60;99.90
48912;DHT22;34722;52.108;5.044;2022-11-18T16:41:41;9.60;99.90
48912;DHT22;34722;52.108;5.044;2022-11-18T16:44:10;9.60;99.90
48912;DHT22;34722;52.108;5.044;2022-11-18T16:46:38;9.60;99.90
48912;DHT22;34722;52.108;5.044;2022-11-18T16:49:06;9.60;99.90
48912;DHT22;34722;52.108;5.044;2022-11-18T16:51:35;9.60;99.90
48912;DHT22;34722;52.108;5.044;2022-11-18T16:54:04;9.60;99.90
48912;DHT22;34722;52.108;5.044;2022-11-18T16:56:32;9.60;99.90
48912;DHT22;34722;52.108;5.044;2022-11-18T16:59:10;9.60;99.90
48912;DHT22;34722;52.108;5.044;2022-11-18T17:01:36;9.60;99.90
48912;DHT22;34722;52.108;5.044;2022-11-18T17:04:01;9.60;99.90
48912;DHT22;34722;52.108;5.044;2022-11-18T17:06:29;9.60;99.90
48912;DHT22;34722;52.108;5.044;2022-11-18T17:08:57;9.60;99.90
48912;DHT22;34722;52.108;5.044;2022-11-18T17:11:23;9.60;99.90
48912;DHT22;34722;52.108;5.044;2022-11-18T17:13:49;9.60;99.90
48912;DHT22;34722;52.108;5.044;2022-11-18T17:16:16;9.60;99.90
48912;DHT22;34722;52.108;5.044;2022-11-18T17:18:44;9.60;99.90
48912;DHT22;34722;52.108;5.044;2022-11-18T17:21:12;9.60;99.90
48912;DHT22;34722;52.108;5.044;2022-11-18T17:23:39;9.60;99.90
48912;DHT22;34722;52.108;5.044;2022-11-18T17:26:06;9.60;99.90
48912;DHT22;34722;52.108;5.044;2022-11-18T17:28:34;9.60;99.90
48912;DHT22;34722;52.108;5.044;2022-11-18T17:31:08;9.60;99.90
48912;DHT22;34722;52.108;5.044;2022-11-18T17:33:34;9.60;99.90
48912;DHT22;34722;52.108;5.044;2022-11-18T17:38:29;9.60;99.90
48912;DHT22;34722;52.108;5.044;2022-11-18T17:40:56;9.60;99.90
48912;DHT22;34722;52.108;5.044;2022-11-18T17:43:23;9.60;99.90
48912;DHT22;34722;52.108;5.044;2022-11-18T17:45:54;9.60;99.90
48912;DHT22;34722;52.108;5.044;2022-11-18T17:48:26;9.60;99.90
48912;DHT22;34722;52.108;5.044;2022-11-18T17:50:52;9.60;99.90
48912;DHT22;34722;52.108;5.044;2022-11-18T17:53:18;9.60;99.90
48912;DHT22;34722;52.108;5.044;2022-11-18T17:55:45;9.60;99.90
48912;DHT22;34722;52.108;5.044;2022-11-18T17:58:11;9.60;99.90
48912;DHT22;34722;52.108;5.044;2022-11-18T18:00:38;9.60;99.90
48912;DHT22;34722;52.108;5.044;2022-11-18T18:03:05;9.70;99.90
48912;DHT22;34722;52.108;5.044;2022-11-18T18:05:31;9.60;99.90
48912;DHT22;34722;52.108;5.044;2022-11-18T18:08:01;9.60;99.90
48912;DHT22;34722;52.108;5.044;2022-11-18T18:13:04;9.60;99.90
48912;DHT22;34722;52.108;5.044;2022-11-18T18:15:58;9.60;99.90
48912;DHT22;34722;52.108;5.044;2022-11-18T18:18:27;9.60;99.90
48912;DHT22;34722;52.108;5.044;2022-11-18T18:20:52;9.70;99.90
48912;DHT22;34722;52.108;5.044;2022-11-18T18:23:18;9.60;99.90
48912;DHT22;34722;52.108;5.044;2022-11-18T20:51:59;7.90;99.90
48912;DHT22;34722;52.108;5.044;2022-11-18T20:54:25;7.80;99.90
48912;DHT22;34722;52.108;5.044;2022-11-18T20:56:51;7.80;99.90
48912;DHT22;34722;52.108;5.044;2022-11-18T20:59:17;7.90;99.90
48912;DHT22;34722;52.108;5.044;2022-11-18T21:01:42;7.80;99.90
48912;DHT22;34722;52.108;5.044;2022-11-18T21:04:10;7.80;99.90
48912;DHT22;34722;52.108;5.044;2022-11-18T21:06:36;7.70;99.90
48912;DHT22;34722;52.108;5.044;2022-11-18T21:09:04;7.50;99.90
48912;DHT22;34722;52.108;5.044;2022-11-18T21:11:32;7.40;99.90
48912;DHT22;34722;52.108;5.044;2022-11-18T21:13:58;7.40;99.90
48912;DHT22;34722;52.108;5.044;2022-11-18T21:16:44;7.30;99.90